SUR4003 SACO-SABE
Flight info
| Callsign | SUR4003 |
|---|---|
| Flight time | 0h 59m |
| Altitude | 35000 |
| Route | SACO/05 DCT UTRAX UW24 SNT SNT9R |
| Aircraft | B738/M-SDE3/C |
Departure
| Time | 2026-05-03 20:33 |
|---|---|
| Airport | Ingeniero Aeronáutico Ambrosio L.V. Taravella International Airport (SACO) |
Arrival
| Time | 2026-05-03 21:33 |
|---|---|
| Airport | Aeroparque Jorge Newbery (SABE) |
| Time | Latitude | Longitude | Altitude | Speed | Heading |
|---|---|---|---|---|---|
| 2026-05-03 20:15 | -31.31480 | -64.21172 | 1570 ft | 0 kts | 263° |
| 2026-05-03 20:25 | -31.31480 | -64.21169 | 1570 ft | 2 kts | 263° |
| 2026-05-03 20:25 | -31.31479 | -64.21158 | 1569 ft | 2 kts | 263° |
| 2026-05-03 20:25 | -31.31475 | -64.21140 | 1569 ft | 2 kts | 245° |
| 2026-05-03 20:26 | -31.31468 | -64.21125 | 1569 ft | 2 kts | 233° |
| 2026-05-03 20:26 | -31.31458 | -64.21112 | 1569 ft | 2 kts | 220° |
| 2026-05-03 20:26 | -31.31446 | -64.21102 | 1569 ft | 2 kts | 207° |
| 2026-05-03 20:26 | -31.31432 | -64.21095 | 1569 ft | 2 kts | 194° |
| 2026-05-03 20:27 | -31.31417 | -64.21093 | 1569 ft | 2 kts | 180° |
| 2026-05-03 20:27 | -31.31408 | -64.21093 | 1569 ft | 1 kts | 172° |
| 2026-05-03 20:27 | -31.31402 | -64.21094 | 1570 ft | 0 kts | 171° |
| 2026-05-03 20:29 | -31.31405 | -64.21094 | 1569 ft | 2 kts | 171° |
| 2026-05-03 20:29 | -31.31450 | -64.21085 | 1568 ft | 5 kts | 168° |
| 2026-05-03 20:29 | -31.31493 | -64.21075 | 1567 ft | 6 kts | 168° |
| 2026-05-03 20:29 | -31.31546 | -64.21062 | 1565 ft | 8 kts | 168° |
| 2026-05-03 20:30 | -31.31615 | -64.21046 | 1562 ft | 10 kts | 169° |
| 2026-05-03 20:30 | -31.31694 | -64.21030 | 1560 ft | 11 kts | 174° |
| 2026-05-03 20:30 | -31.31776 | -64.21027 | 1558 ft | 11 kts | 182° |
| 2026-05-03 20:30 | -31.31861 | -64.21027 | 1556 ft | 12 kts | 179° |
| 2026-05-03 20:31 | -31.31955 | -64.21025 | 1552 ft | 14 kts | 179° |
| 2026-05-03 20:31 | -31.32061 | -64.21023 | 1549 ft | 15 kts | 179° |
| 2026-05-03 20:31 | -31.32166 | -64.21020 | 1547 ft | 15 kts | 178° |
| 2026-05-03 20:31 | -31.32273 | -64.21017 | 1545 ft | 15 kts | 179° |
| 2026-05-03 20:32 | -31.32380 | -64.21013 | 1543 ft | 14 kts | 165° |
| 2026-05-03 20:32 | -31.32427 | -64.20928 | 1540 ft | 13 kts | 69° |
| 2026-05-03 20:32 | -31.32384 | -64.20835 | 1539 ft | 12 kts | 47° |
| 2026-05-03 20:32 | -31.32297 | -64.20729 | 1539 ft | 40 kts | 45° |
| 2026-05-03 20:33 | -31.31917 | -64.20302 | 1541 ft | 110 kts | 43° |
| 2026-05-03 20:33 | -31.31198 | -64.19489 | 1557 ft | 171 kts | 44° |
| 2026-05-03 20:33 | -31.30360 | -64.18492 | 2334 ft | 173 kts | 44° |
| 2026-05-03 20:33 | -31.29565 | -64.17432 | 3089 ft | 179 kts | 52° |
| 2026-05-03 20:34 | -31.29140 | -64.15951 | 3439 ft | 214 kts | 82° |
| 2026-05-03 20:34 | -31.29507 | -64.14205 | 4021 ft | 240 kts | 116° |
| 2026-05-03 20:34 | -31.30740 | -64.12814 | 4571 ft | 265 kts | 147° |
| 2026-05-03 20:34 | -31.32622 | -64.12072 | 4934 ft | 294 kts | 173° |
| 2026-05-03 20:35 | -31.34626 | -64.11959 | 5994 ft | 288 kts | 177° |
| 2026-05-03 20:35 | -31.36627 | -64.11541 | 6573 ft | 303 kts | 161° |
| 2026-05-03 20:35 | -31.38548 | -64.10480 | 7371 ft | 307 kts | 148° |
| 2026-05-03 20:35 | -31.40302 | -64.09152 | 8396 ft | 303 kts | 146° |
| 2026-05-03 20:36 | -31.42054 | -64.07743 | 9192 ft | 307 kts | 145° |
| 2026-05-03 20:36 | -31.43824 | -64.06282 | 9788 ft | 317 kts | 145° |
| 2026-05-03 20:36 | -31.45612 | -64.04759 | 9975 ft | 322 kts | 144° |
| 2026-05-03 20:36 | -31.47396 | -64.03171 | 9981 ft | 316 kts | 143° |
| 2026-05-03 20:37 | -31.49116 | -64.01603 | 9981 ft | 310 kts | 140° |
| 2026-05-03 20:37 | -31.50577 | -63.99783 | 9984 ft | 308 kts | 126° |
| 2026-05-03 20:37 | -31.51790 | -63.97654 | 10082 ft | 322 kts | 121° |
| 2026-05-03 20:37 | -31.52959 | -63.95451 | 10966 ft | 320 kts | 122° |
| 2026-05-03 20:38 | -31.54216 | -63.93183 | 11280 ft | 339 kts | 124° |
| 2026-05-03 20:38 | -31.55563 | -63.90888 | 11688 ft | 354 kts | 126° |
| 2026-05-03 20:38 | -31.57028 | -63.88474 | 12059 ft | 370 kts | 126° |
| 2026-05-03 20:38 | -31.58551 | -63.85995 | 12416 ft | 384 kts | 127° |
| 2026-05-03 20:39 | -31.60123 | -63.83443 | 13018 ft | 389 kts | 127° |
| 2026-05-03 20:39 | -31.61712 | -63.80854 | 13689 ft | 393 kts | 127° |
| 2026-05-03 20:39 | -31.63307 | -63.78248 | 14390 ft | 395 kts | 127° |
| 2026-05-03 20:39 | -31.64899 | -63.75640 | 14986 ft | 400 kts | 128° |
| 2026-05-03 20:40 | -31.66530 | -63.72963 | 15633 ft | 403 kts | 128° |
| 2026-05-03 20:40 | -31.68164 | -63.70277 | 16293 ft | 405 kts | 128° |
| 2026-05-03 20:40 | -31.69802 | -63.67584 | 16867 ft | 410 kts | 128° |
| 2026-05-03 20:40 | -31.71443 | -63.64884 | 17466 ft | 413 kts | 128° |
| 2026-05-03 20:41 | -31.73130 | -63.62107 | 18093 ft | 415 kts | 129° |
| 2026-05-03 20:41 | -31.74807 | -63.59347 | 18617 ft | 421 kts | 129° |
| 2026-05-03 20:41 | -31.76514 | -63.56534 | 19244 ft | 423 kts | 129° |
| 2026-05-03 20:41 | -31.78222 | -63.53717 | 19797 ft | 427 kts | 129° |
| 2026-05-03 20:42 | -31.79934 | -63.50894 | 20342 ft | 430 kts | 130° |
| 2026-05-03 20:42 | -31.81666 | -63.48037 | 20899 ft | 434 kts | 130° |
| 2026-05-03 20:42 | -31.83419 | -63.45143 | 21476 ft | 436 kts | 130° |
| 2026-05-03 20:42 | -31.85206 | -63.42191 | 21952 ft | 441 kts | 130° |
| 2026-05-03 20:43 | -31.86966 | -63.39277 | 22544 ft | 442 kts | 130° |
| 2026-05-03 20:43 | -31.88771 | -63.36292 | 22980 ft | 447 kts | 131° |
| 2026-05-03 20:43 | -31.90612 | -63.33356 | 23435 ft | 450 kts | 132° |
| 2026-05-03 20:43 | -31.92519 | -63.30478 | 23963 ft | 450 kts | 133° |
| 2026-05-03 20:44 | -31.94496 | -63.27573 | 24354 ft | 455 kts | 134° |
| 2026-05-03 20:44 | -31.96493 | -63.24661 | 24903 ft | 456 kts | 134° |
| 2026-05-03 20:44 | -31.98481 | -63.21761 | 25310 ft | 460 kts | 134° |
| 2026-05-03 20:44 | -32.00469 | -63.18848 | 25836 ft | 461 kts | 134° |
| 2026-05-03 20:45 | -32.02497 | -63.15868 | 26026 ft | 470 kts | 134° |
| 2026-05-03 20:45 | -32.04516 | -63.12888 | 26697 ft | 467 kts | 134° |
| 2026-05-03 20:45 | -32.06565 | -63.09854 | 26984 ft | 473 kts | 134° |
| 2026-05-03 20:45 | -32.08582 | -63.06856 | 27519 ft | 472 kts | 134° |
| 2026-05-03 20:46 | -32.10651 | -63.03776 | 27891 ft | 476 kts | 134° |
| 2026-05-03 20:46 | -32.12703 | -63.00715 | 28238 ft | 480 kts | 134° |
| 2026-05-03 20:46 | -32.14765 | -62.97633 | 28662 ft | 481 kts | 134° |
| 2026-05-03 20:46 | -32.16832 | -62.94536 | 29030 ft | 484 kts | 134° |
| 2026-05-03 20:47 | -32.18890 | -62.91445 | 29690 ft | 480 kts | 134° |
| 2026-05-03 20:47 | -32.20929 | -62.88376 | 30348 ft | 475 kts | 134° |
| 2026-05-03 20:47 | -32.22981 | -62.85287 | 30758 ft | 476 kts | 134° |
| 2026-05-03 20:47 | -32.25033 | -62.82203 | 31285 ft | 474 kts | 134° |
| 2026-05-03 20:48 | -32.27060 | -62.79153 | 31801 ft | 472 kts | 135° |
| 2026-05-03 20:48 | -32.29084 | -62.76105 | 32221 ft | 472 kts | 135° |
| 2026-05-03 20:48 | -32.31109 | -62.73057 | 32749 ft | 469 kts | 135° |
| 2026-05-03 20:48 | -32.33096 | -62.70062 | 33164 ft | 468 kts | 135° |
| 2026-05-03 20:49 | -32.35103 | -62.67038 | 33598 ft | 466 kts | 135° |
| 2026-05-03 20:49 | -32.37107 | -62.64016 | 33907 ft | 468 kts | 135° |
| 2026-05-03 20:49 | -32.39115 | -62.60988 | 34290 ft | 467 kts | 135° |
| 2026-05-03 20:49 | -32.41121 | -62.57960 | 34606 ft | 468 kts | 135° |
| 2026-05-03 20:50 | -32.43129 | -62.54933 | 34689 ft | 474 kts | 135° |
| 2026-05-03 20:50 | -32.47248 | -62.48711 | 34870 ft | 485 kts | 135° |
| 2026-05-03 20:50 | -32.49319 | -62.45576 | 34976 ft | 488 kts | 135° |
| 2026-05-03 20:51 | -32.51426 | -62.42377 | 34989 ft | 487 kts | 135° |
| 2026-05-03 20:51 | -32.55546 | -62.36102 | 34991 ft | 483 kts | 135° |
| 2026-05-03 20:52 | -32.59669 | -62.29812 | 34992 ft | 482 kts | 135° |
| 2026-05-03 20:52 | -32.63799 | -62.23518 | 34989 ft | 484 kts | 135° |
| 2026-05-03 20:53 | -32.67900 | -62.17254 | 34994 ft | 482 kts | 135° |
| 2026-05-03 20:53 | -32.71910 | -62.10865 | 34990 ft | 486 kts | 132° |
| 2026-05-03 20:54 | -32.75748 | -62.04242 | 34992 ft | 486 kts | 131° |
| 2026-05-03 20:54 | -32.81423 | -61.94327 | 34996 ft | 485 kts | 131° |
| 2026-05-03 20:55 | -32.85242 | -61.87713 | 34996 ft | 485 kts | 131° |
| 2026-05-03 20:55 | -32.89065 | -61.81115 | 34996 ft | 485 kts | 131° |
| 2026-05-03 20:56 | -32.92867 | -61.74553 | 35003 ft | 484 kts | 131° |
| 2026-05-03 20:56 | -32.96687 | -61.67960 | 35004 ft | 485 kts | 131° |
| 2026-05-03 20:57 | -33.00515 | -61.61335 | 35008 ft | 484 kts | 131° |
| 2026-05-03 20:57 | -33.04335 | -61.54712 | 35017 ft | 486 kts | 131° |
| 2026-05-03 20:58 | -33.08121 | -61.48137 | 35019 ft | 485 kts | 131° |
| 2026-05-03 20:58 | -33.11928 | -61.41514 | 35021 ft | 486 kts | 131° |
| 2026-05-03 20:59 | -33.15748 | -61.34856 | 35019 ft | 485 kts | 130° |
| 2026-05-03 20:59 | -33.19537 | -61.28243 | 35024 ft | 485 kts | 131° |
| 2026-05-03 21:00 | -33.22716 | -61.22689 | 35025 ft | 485 kts | 130° |
| 2026-05-03 21:00 | -33.27126 | -61.14967 | 35030 ft | 485 kts | 131° |
| 2026-05-03 21:01 | -33.30891 | -61.08350 | 35030 ft | 484 kts | 130° |
| 2026-05-03 21:01 | -33.34663 | -61.01685 | 35029 ft | 484 kts | 130° |
| 2026-05-03 21:02 | -33.38403 | -60.95044 | 35033 ft | 484 kts | 130° |
| 2026-05-03 21:02 | -33.42136 | -60.88387 | 35033 ft | 483 kts | 131° |
| 2026-05-03 21:03 | -33.45864 | -60.81727 | 35035 ft | 472 kts | 131° |
| 2026-05-03 21:03 | -33.49515 | -60.75211 | 35037 ft | 478 kts | 131° |
| 2026-05-03 21:04 | -33.53247 | -60.68557 | 35040 ft | 485 kts | 131° |
| 2026-05-03 21:04 | -33.56982 | -60.61855 | 35038 ft | 483 kts | 131° |
| 2026-05-03 21:05 | -33.60714 | -60.55144 | 35042 ft | 482 kts | 131° |
| 2026-05-03 21:05 | -33.64410 | -60.48489 | 35040 ft | 483 kts | 131° |
| 2026-05-03 21:06 | -33.68138 | -60.41764 | 35046 ft | 484 kts | 131° |
| 2026-05-03 21:06 | -33.71845 | -60.35070 | 35045 ft | 483 kts | 131° |
| 2026-05-03 21:07 | -33.75584 | -60.28313 | 35043 ft | 485 kts | 130° |
| 2026-05-03 21:07 | -33.79301 | -60.21586 | 35035 ft | 484 kts | 130° |
| 2026-05-03 21:08 | -33.83023 | -60.14826 | 35029 ft | 486 kts | 130° |
| 2026-05-03 21:08 | -33.86742 | -60.08087 | 34987 ft | 485 kts | 130° |
| 2026-05-03 21:09 | -33.88609 | -60.04739 | 34693 ft | 483 kts | 131° |
| 2026-05-03 21:09 | -33.90467 | -60.01407 | 34318 ft | 475 kts | 131° |
| 2026-05-03 21:09 | -33.92288 | -59.98150 | 33569 ft | 475 kts | 131° |
| 2026-05-03 21:09 | -33.94118 | -59.94884 | 33021 ft | 471 kts | 130° |
| 2026-05-03 21:10 | -33.95952 | -59.91606 | 32407 ft | 468 kts | 130° |
| 2026-05-03 21:10 | -33.97751 | -59.88382 | 31918 ft | 463 kts | 130° |
| 2026-05-03 21:10 | -33.99523 | -59.85207 | 31272 ft | 461 kts | 130° |
| 2026-05-03 21:10 | -34.01307 | -59.82003 | 30798 ft | 456 kts | 130° |
| 2026-05-03 21:11 | -34.03053 | -59.78861 | 30246 ft | 452 kts | 130° |
| 2026-05-03 21:11 | -34.04805 | -59.75705 | 29679 ft | 449 kts | 130° |
| 2026-05-03 21:11 | -34.06512 | -59.72626 | 29200 ft | 445 kts | 130° |
| 2026-05-03 21:11 | -34.08233 | -59.69521 | 28632 ft | 443 kts | 130° |
| 2026-05-03 21:12 | -34.09920 | -59.66474 | 28083 ft | 440 kts | 129° |
| 2026-05-03 21:12 | -34.11615 | -59.63412 | 27393 ft | 441 kts | 129° |
| 2026-05-03 21:12 | -34.13345 | -59.60296 | 26427 ft | 449 kts | 129° |
| 2026-05-03 21:12 | -34.15080 | -59.57171 | 25472 ft | 455 kts | 129° |
| 2026-05-03 21:13 | -34.16844 | -59.53988 | 24681 ft | 458 kts | 129° |
| 2026-05-03 21:13 | -34.18606 | -59.50793 | 24171 ft | 458 kts | 128° |
| 2026-05-03 21:13 | -34.20348 | -59.47583 | 23689 ft | 460 kts | 127° |
| 2026-05-03 21:13 | -34.21941 | -59.44284 | 23433 ft | 454 kts | 123° |
| 2026-05-03 21:14 | -34.23399 | -59.40915 | 23175 ft | 444 kts | 121° |
| 2026-05-03 21:14 | -34.24739 | -59.37630 | 22903 ft | 435 kts | 120° |
| 2026-05-03 21:14 | -34.26041 | -59.34377 | 22498 ft | 429 kts | 119° |
| 2026-05-03 21:14 | -34.27338 | -59.31143 | 21998 ft | 426 kts | 119° |
| 2026-05-03 21:15 | -34.28640 | -59.27923 | 21461 ft | 424 kts | 120° |
| 2026-05-03 21:15 | -34.29922 | -59.24777 | 20935 ft | 422 kts | 120° |
| 2026-05-03 21:15 | -34.31215 | -59.21624 | 20398 ft | 420 kts | 120° |
| 2026-05-03 21:15 | -34.32516 | -59.18466 | 19863 ft | 418 kts | 120° |
| 2026-05-03 21:16 | -34.33815 | -59.15317 | 19323 ft | 415 kts | 120° |
| 2026-05-03 21:16 | -34.35086 | -59.12241 | 18796 ft | 413 kts | 120° |
| 2026-05-03 21:16 | -34.36358 | -59.09160 | 18274 ft | 410 kts | 120° |
| 2026-05-03 21:16 | -34.37630 | -59.06075 | 17746 ft | 407 kts | 120° |
| 2026-05-03 21:17 | -34.38882 | -59.03039 | 17227 ft | 404 kts | 120° |
| 2026-05-03 21:17 | -34.39706 | -59.01037 | 16868 ft | 402 kts | 120° |
| 2026-05-03 21:17 | -34.41359 | -58.97026 | 16152 ft | 398 kts | 120° |
| 2026-05-03 21:17 | -34.42578 | -58.94063 | 15675 ft | 393 kts | 120° |
| 2026-05-03 21:18 | -34.43798 | -58.91092 | 15143 ft | 389 kts | 120° |
| 2026-05-03 21:18 | -34.44997 | -58.88175 | 14658 ft | 386 kts | 120° |
| 2026-05-03 21:18 | -34.46189 | -58.85276 | 14160 ft | 383 kts | 120° |
| 2026-05-03 21:18 | -34.47358 | -58.82426 | 13662 ft | 380 kts | 120° |
| 2026-05-03 21:19 | -34.48533 | -58.79557 | 13166 ft | 377 kts | 119° |
| 2026-05-03 21:19 | -34.49680 | -58.76756 | 12680 ft | 375 kts | 119° |
| 2026-05-03 21:19 | -34.50838 | -58.73924 | 12181 ft | 372 kts | 118° |
| 2026-05-03 21:19 | -34.51981 | -58.71128 | 11665 ft | 367 kts | 118° |
| 2026-05-03 21:20 | -34.53093 | -58.68401 | 11203 ft | 356 kts | 118° |
| 2026-05-03 21:20 | -34.54171 | -58.65756 | 10733 ft | 347 kts | 118° |
| 2026-05-03 21:20 | -34.55216 | -58.63191 | 10284 ft | 338 kts | 117° |
| 2026-05-03 21:20 | -34.56235 | -58.60690 | 10041 ft | 323 kts | 117° |
| 2026-05-03 21:21 | -34.57213 | -58.58289 | 9869 ft | 308 kts | 117° |
| 2026-05-03 21:21 | -34.58145 | -58.55998 | 9457 ft | 305 kts | 117° |
| 2026-05-03 21:21 | -34.59085 | -58.53689 | 9013 ft | 307 kts | 117° |
| 2026-05-03 21:21 | -34.60022 | -58.51386 | 8613 ft | 305 kts | 117° |
| 2026-05-03 21:22 | -34.60944 | -58.49117 | 8267 ft | 297 kts | 116° |
| 2026-05-03 21:22 | -34.61851 | -58.46882 | 7898 ft | 290 kts | 116° |
| 2026-05-03 21:22 | -34.62727 | -58.44722 | 7537 ft | 285 kts | 116° |
| 2026-05-03 21:22 | -34.63598 | -58.42574 | 7181 ft | 279 kts | 116° |
| 2026-05-03 21:23 | -34.64440 | -58.40494 | 6837 ft | 273 kts | 116° |
| 2026-05-03 21:23 | -34.65270 | -58.38444 | 6501 ft | 268 kts | 116° |
| 2026-05-03 21:23 | -34.66079 | -58.36444 | 6168 ft | 263 kts | 115° |
| 2026-05-03 21:23 | -34.66880 | -58.34462 | 5841 ft | 258 kts | 114° |
| 2026-05-03 21:24 | -34.67659 | -58.32534 | 5516 ft | 254 kts | 114° |
| 2026-05-03 21:24 | -34.68435 | -58.30616 | 5198 ft | 251 kts | 114° |
| 2026-05-03 21:24 | -34.69198 | -58.28724 | 4917 ft | 249 kts | 114° |
| 2026-05-03 21:24 | -34.69955 | -58.26846 | 4674 ft | 248 kts | 113° |
| 2026-05-03 21:25 | -34.70693 | -58.24960 | 4602 ft | 242 kts | 109° |
| 2026-05-03 21:25 | -34.71115 | -58.22980 | 4488 ft | 242 kts | 87° |
| 2026-05-03 21:25 | -34.71016 | -58.21017 | 4405 ft | 225 kts | 77° |
| 2026-05-03 21:25 | -34.70746 | -58.19231 | 4389 ft | 207 kts | 67° |
| 2026-05-03 21:26 | -34.70147 | -58.17747 | 4291 ft | 189 kts | 48° |
| 2026-05-03 21:26 | -34.69275 | -58.16642 | 4242 ft | 174 kts | 30° |
| 2026-05-03 21:26 | -34.68206 | -58.15971 | 4058 ft | 175 kts | 13° |
| 2026-05-03 21:26 | -34.67022 | -58.15736 | 3818 ft | 171 kts | 357° |
| 2026-05-03 21:27 | -34.65860 | -58.15935 | 3554 ft | 165 kts | 341° |
| 2026-05-03 21:27 | -34.64840 | -58.16530 | 3341 ft | 161 kts | 327° |
| 2026-05-03 21:27 | -34.64009 | -58.17432 | 3157 ft | 162 kts | 313° |
| 2026-05-03 21:27 | -34.63422 | -58.18608 | 3051 ft | 165 kts | 296° |
| 2026-05-03 21:28 | -34.63137 | -58.19966 | 3002 ft | 171 kts | 281° |
| 2026-05-03 21:28 | -34.63200 | -58.21438 | 2909 ft | 174 kts | 264° |
| 2026-05-03 21:28 | -34.63464 | -58.22879 | 2552 ft | 178 kts | 264° |
| 2026-05-03 21:28 | -34.63704 | -58.24350 | 2228 ft | 179 kts | 266° |
| 2026-05-03 21:29 | -34.63882 | -58.25785 | 2075 ft | 160 kts | 277° |
| 2026-05-03 21:29 | -34.63735 | -58.27005 | 1917 ft | 136 kts | 294° |
| 2026-05-03 21:29 | -34.63377 | -58.28091 | 1739 ft | 141 kts | 307° |
| 2026-05-03 21:29 | -34.62853 | -58.29100 | 1707 ft | 141 kts | 310° |
| 2026-05-03 21:30 | -34.62302 | -58.30099 | 1674 ft | 143 kts | 310° |
| 2026-05-03 21:30 | -34.61750 | -58.31104 | 1665 ft | 143 kts | 310° |
| 2026-05-03 21:30 | -34.61198 | -58.32101 | 1665 ft | 140 kts | 310° |
| 2026-05-03 21:30 | -34.60680 | -58.33062 | 1700 ft | 134 kts | 308° |
| 2026-05-03 21:31 | -34.60168 | -58.34045 | 1553 ft | 138 kts | 311° |
| 2026-05-03 21:31 | -34.59621 | -58.35006 | 1474 ft | 137 kts | 309° |
| 2026-05-03 21:31 | -34.59080 | -58.35968 | 1167 ft | 141 kts | 309° |
| 2026-05-03 21:31 | -34.58511 | -58.36963 | 951 ft | 140 kts | 308° |
| 2026-05-03 21:32 | -34.57963 | -58.37947 | 735 ft | 142 kts | 307° |
| 2026-05-03 21:32 | -34.57397 | -58.38947 | 469 ft | 148 kts | 306° |
| 2026-05-03 21:32 | -34.56822 | -58.39968 | 232 ft | 147 kts | 308° |
| 2026-05-03 21:32 | -34.56252 | -58.40989 | 39 ft | 139 kts | 306° |
| 2026-05-03 21:33 | -34.55808 | -58.41777 | 27 ft | 81 kts | 307° |
| 2026-05-03 21:33 | -34.55583 | -58.42178 | 27 ft | 45 kts | 306° |
| 2026-05-03 21:33 | -34.55384 | -58.42357 | 27 ft | 15 kts | 42° |
| 2026-05-03 21:33 | -34.55398 | -58.42317 | 27 ft | 6 kts | 128° |
| 2026-05-03 21:34 | -34.55444 | -58.42247 | 27 ft | 14 kts | 128° |
| 2026-05-03 21:34 | -34.55515 | -58.42135 | 26 ft | 17 kts | 127° |
| 2026-05-03 21:34 | -34.55583 | -58.42024 | 26 ft | 16 kts | 126° |
| 2026-05-03 21:34 | -34.55638 | -58.41915 | 26 ft | 13 kts | 96° |
| 2026-05-03 21:35 | -34.55616 | -58.41829 | 26 ft | 8 kts | 96° |
| 2026-05-03 21:35 | -34.55634 | -58.41769 | 26 ft | 6 kts | 114° |
| 2026-05-03 21:35 | -34.55627 | -58.41766 | 26 ft | 2 kts | 296° |
| 2026-05-03 21:35 | -34.55622 | -58.41773 | 26 ft | 2 kts | 321° |
| 2026-05-03 21:36 | -34.55608 | -58.41772 | 26 ft | 2 kts | 16° |
| 2026-05-03 21:36 | -34.55593 | -58.41766 | 26 ft | 2 kts | 25° |
| 2026-05-03 21:36 | -34.55577 | -58.41755 | 26 ft | 2 kts | 32° |
| 2026-05-03 21:36 | -34.55561 | -58.41743 | 26 ft | 2 kts | 32° |
| 2026-05-03 21:37 | -34.55544 | -58.41730 | 26 ft | 2 kts | 34° |
| 2026-05-03 21:37 | -34.55536 | -58.41723 | 26 ft | 0 kts | 36° |